Time;durP1;ratioP1;P1;durP2;ratioP2;P2;SDS_P1;SDS_P2;PMS_P1;PMS_P2;Temp;Humidity;BMP_temperature;BMP_pressure;BME280_temperature;BME280_humidity;BME280_pressure;Samples;Min_cycle;Max_cycle;Signal;HPM_P1;HPM_P2
2023/09/18 00:00:27;;;;;;;19.58;7.38;;;19.50;99.90;;;;;;6143249;22;87915;-76
2023/09/18 00:02:53;;;;;;;13.38;7.25;;;19.50;99.90;;;;;;6141201;22;88882;-76
2023/09/18 00:05:18;;;;;;;19.65;7.60;;;19.50;99.90;;;;;;6142816;22;88290;-75
2023/09/18 00:07:44;;;;;;;15.38;7.78;;;19.50;99.90;;;;;;6165356;22;91452;-75
2023/09/18 00:10:28;;;;;;;16.80;7.10;;;19.50;99.90;;;;;;6141830;22;87192;-75
2023/09/18 00:12:54;;;;;;;19.10;7.07;;;19.50;99.90;;;;;;6141905;22;88331;-76
2023/09/18 00:15:20;;;;;;;13.82;7.85;;;19.50;99.90;;;;;;6171334;22;89767;-75
2023/09/18 00:17:46;;;;;;;13.18;7.43;;;19.50;99.90;;;;;;6149641;22;90351;-76
2023/09/18 00:20:13;;;;;;;14.20;6.82;;;19.50;99.90;;;;;;6141165;22;88000;-75
2023/09/18 00:22:39;;;;;;;13.88;7.18;;;19.50;99.90;;;;;;6140844;22;88543;-76
2023/09/18 00:25:05;;;;;;;14.32;7.32;;;19.50;99.90;;;;;;6143328;22;88162;-75
2023/09/18 00:27:32;;;;;;;16.30;6.43;;;19.50;99.90;;;;;;6167550;22;91216;-75
2023/09/18 00:29:58;;;;;;;11.88;7.03;;;19.60;99.90;;;;;;6142195;22;87672;-75
2023/09/18 00:32:23;;;;;;;10.48;6.22;;;19.50;99.90;;;;;;6160084;22;88337;-75
2023/09/18 00:34:49;;;;;;;14.70;6.85;;;19.50;99.90;;;;;;6163913;22;88789;-75
2023/09/18 00:37:16;;;;;;;12.00;6.22;;;19.50;99.90;;;;;;6140832;22;88308;-75
2023/09/18 00:39:43;;;;;;;15.45;6.88;;;19.50;99.90;;;;;;6142791;22;87244;-75
2023/09/18 00:42:13;;;;;;;19.73;6.60;;;19.50;99.90;;;;;;6168272;22;87668;-75
2023/09/18 00:44:39;;;;;;;17.67;7.72;;;19.50;99.90;;;;;;6153451;22;88164;-76
2023/09/18 00:47:06;;;;;;;15.25;7.35;;;19.50;99.90;;;;;;6142273;22;88526;-76
2023/09/18 00:49:35;;;;;;;14.18;7.07;;;19.50;99.90;;;;;;6143614;22;87493;-75
2023/09/18 00:52:02;;;;;;;19.35;7.18;;;19.50;99.90;;;;;;6141792;22;90336;-75
2023/09/18 00:54:28;;;;;;;9.75;6.65;;;19.50;99.90;;;;;;6173200;22;87657;-76
2023/09/18 00:56:54;;;;;;;16.60;7.05;;;19.40;99.90;;;;;;6150326;22;87841;-76
2023/09/18 00:59:21;;;;;;;11.45;6.43;;;19.50;99.90;;;;;;6140626;22;87485;-75
2023/09/18 01:01:50;;;;;;;20.02;6.90;;;19.40;99.90;;;;;;6138412;22;90420;-75
2023/09/18 01:04:16;;;;;;;15.45;6.38;;;19.40;99.90;;;;;;6138602;22;89361;-75
2023/09/18 01:06:42;;;;;;;14.80;7.05;;;19.40;99.90;;;;;;6141982;22;87904;-75
2023/09/18 01:09:12;;;;;;;13.07;6.88;;;19.40;99.90;;;;;;6141955;22;87908;-75
2023/09/18 01:12:15;;;;;;;12.60;6.35;;;19.40;99.90;;;;;;6160599;22;88161;-75
2023/09/18 01:14:49;;;;;;;12.47;6.87;;;19.40;99.90;;;;;;6150401;22;90677;-75
2023/09/18 01:17:16;;;;;;;13.63;7.32;;;19.50;99.90;;;;;;6141822;22;88998;-75
2023/09/18 01:19:46;;;;;;;14.68;6.03;;;19.50;99.90;;;;;;6142028;22;87922;-75
2023/09/18 01:22:16;;;;;;;12.90;6.63;;;19.50;99.90;;;;;;6144250;22;87062;-75
2023/09/18 01:24:43;;;;;;;20.63;7.47;;;19.50;99.90;;;;;;6174121;22;88122;-75
2023/09/18 01:27:12;;;;;;;18.63;7.40;;;19.50;99.90;;;;;;6145859;22;88517;-75
2023/09/18 01:29:38;;;;;;;18.42;6.82;;;19.50;99.90;;;;;;6143144;22;87197;-75
2023/09/18 01:32:05;;;;;;;13.98;6.25;;;19.40;99.90;;;;;;6177700;22;87947;-75
2023/09/18 01:34:48;;;;;;;12.27;6.63;;;19.50;99.90;;;;;;6190881;22;91345;-75
2023/09/18 01:37:17;;;;;;;18.95;7.18;;;19.50;99.90;;;;;;6141133;22;88520;-75
2023/09/18 01:39:44;;;;;;;18.05;6.65;;;19.50;99.90;;;;;;6141235;22;87049;-75
2023/09/18 01:42:10;;;;;;;15.98;6.82;;;19.50;99.90;;;;;;6142309;22;87574;-75
2023/09/18 01:44:40;;;;;;;14.18;7.22;;;19.50;99.90;;;;;;6161316;22;88362;-75
2023/09/18 01:47:28;;;;;;;21.10;7.53;;;19.50;99.90;;;;;;6159739;22;87623;-75
2023/09/18 01:49:54;;;;;;;16.75;6.43;;;19.50;99.90;;;;;;6142415;22;87769;-75
2023/09/18 01:52:20;;;;;;;20.95;6.97;;;19.50;99.90;;;;;;6144602;22;90135;-74
2023/09/18 01:54:45;;;;;;;20.60;6.68;;;19.60;99.90;;;;;;6170521;22;90659;-74
2023/09/18 01:57:12;;;;;;;20.58;6.63;;;19.60;99.90;;;;;;6145068;22;87386;-74
2023/09/18 01:59:38;;;;;;;19.98;6.07;;;19.70;99.90;;;;;;6141750;22;87112;-75
2023/09/18 02:02:07;;;;;;;15.25;4.97;;;19.90;99.90;;;;;;6152564;22;89138;-74
2023/09/18 02:04:33;;;;;;;15.05;4.75;;;20.10;99.90;;;;;;6165305;22;88032;-74
2023/09/18 02:06:59;;;;;;;18.02;5.20;;;20.20;99.90;;;;;;6164901;22;90787;-74
2023/09/18 02:09:24;;;;;;;15.82;5.68;;;20.30;99.90;;;;;;6141098;22;87415;-75
2023/09/18 02:11:50;;;;;;;25.33;5.20;;;20.30;99.90;;;;;;6164049;22;87855;-75
2023/09/18 02:14:15;;;;;;;12.65;4.00;;;20.30;99.90;;;;;;6154268;22;91214;-75
2023/09/18 02:16:43;;;;;;;11.52;3.25;;;20.30;99.90;;;;;;6139341;22;90252;-75
2023/09/18 02:19:10;;;;;;;7.78;3.35;;;20.20;99.90;;;;;;6141392;22;86821;-75
2023/09/18 02:21:37;;;;;;;8.45;3.33;;;20.20;99.90;;;;;;6171443;22;87693;-74
2023/09/18 02:24:02;;;;;;;11.27;3.28;;;20.10;99.90;;;;;;6145173;22;91255;-75
2023/09/18 02:26:29;;;;;;;10.18;3.00;;;20.10;99.90;;;;;;6138634;22;89384;-74
2023/09/18 02:28:56;;;;;;;9.95;3.20;;;20.00;99.90;;;;;;6151713;22;87590;-75
2023/09/18 02:31:22;;;;;;;8.05;2.70;;;20.00;99.90;;;;;;6165979;22;87478;-75
2023/09/18 02:33:48;;;;;;;4.60;3.00;;;19.90;99.90;;;;;;6140744;22;87468;-75
2023/09/18 02:36:15;;;;;;;6.85;3.15;;;19.90;99.90;;;;;;6139860;22;91297;-75
2023/09/18 02:38:40;;;;;;;12.43;3.20;;;19.90;99.90;;;;;;6162571;22;87966;-75
2023/09/18 02:41:06;;;;;;;6.93;3.20;;;19.80;99.90;;;;;;6158460;22;87569;-75
2023/09/18 02:43:32;;;;;;;8.20;3.20;;;19.80;99.90;;;;;;6140519;22;87216;-75
2023/09/18 02:45:58;;;;;;;10.48;2.88;;;19.70;99.90;;;;;;6141871;22;87626;-76
2023/09/18 02:48:23;;;;;;;12.38;3.20;;;19.70;99.90;;;;;;6170147;22;93978;-75
2023/09/18 02:50:49;;;;;;;14.80;3.20;;;19.70;99.90;;;;;;6148843;22;88550;-76
2023/09/18 02:53:20;;;;;;;8.70;2.97;;;19.60;99.90;;;;;;6141677;22;87792;-76
2023/09/18 02:55:54;;;;;;;7.70;3.30;;;19.60;99.90;;;;;;6149608;22;87870;-76
2023/09/18 02:58:19;;;;;;;;;;;19.60;99.90;;;;;;6169552;22;88180;-75
2023/09/18 03:00:47;;;;;;;6.93;3.05;;;19.60;99.90;;;;;;6143864;22;87490;-75
2023/09/18 03:03:14;;;;;;;11.30;3.05;;;19.60;99.90;;;;;;6141680;22;87877;-75
2023/09/18 03:05:41;;;;;;;9.05;2.70;;;19.60;99.90;;;;;;6161902;22;88010;-75
2023/09/18 03:08:08;;;;;;;8.73;2.80;;;19.70;99.90;;;;;;6156345;22;86796;-75
2023/09/18 03:10:39;;;;;;;10.20;3.28;;;19.70;99.90;;;;;;6139337;22;89210;-75
2023/09/18 03:13:06;;;;;;;6.03;2.70;;;19.70;99.90;;;;;;6140622;22;87629;-75
2023/09/18 03:15:32;;;;;;;6.07;2.38;;;19.70;99.90;;;;;;6169565;22;90065;-75
2023/09/18 03:17:58;;;;;;;9.23;3.10;;;19.70;99.90;;;;;;6148626;22;87498;-75
2023/09/18 03:20:26;;;;;;;8.30;2.50;;;19.70;99.90;;;;;;6139150;22;88699;-75
2023/09/18 03:23:00;;;;;;;9.38;2.83;;;19.60;99.90;;;;;;6150499;22;89008;-75
2023/09/18 03:25:26;;;;;;;11.35;2.70;;;19.60;99.90;;;;;;6164953;22;88176;-75
2023/09/18 03:27:53;;;;;;;8.10;3.00;;;19.60;99.90;;;;;;6166072;22;88060;-75
2023/09/18 03:30:20;;;;;;;7.68;2.95;;;19.50;99.90;;;;;;6141764;22;87631;-75
2023/09/18 03:32:45;;;;;;;7.60;3.03;;;19.50;99.90;;;;;;6161501;22;86805;-75
2023/09/18 03:35:18;;;;;;;6.30;2.92;;;19.50;99.90;;;;;;6155048;22;90514;-75
2023/09/18 03:37:56;;;;;;;4.80;2.70;;;19.50;99.90;;;;;;6139707;22;87700;-75
2023/09/18 03:40:23;;;;;;;7.20;2.50;;;19.50;99.90;;;;;;6141771;22;90045;-75
2023/09/18 03:42:48;;;;;;;6.30;2.08;;;19.50;99.90;;;;;;6168538;22;90858;-74
2023/09/18 03:45:15;;;;;;;6.05;2.38;;;19.50;99.90;;;;;;6143401;22;88218;-75
2023/09/18 03:47:42;;;;;;;8.73;2.38;;;19.50;99.90;;;;;;6141354;22;87789;-75
2023/09/18 03:50:11;;;;;;;4.32;2.05;;;19.50;99.90;;;;;;6154448;22;87628;-75
2023/09/18 03:52:38;;;;;;;4.03;2.45;;;19.60;99.90;;;;;;6162352;22;91885;-74
2023/09/18 03:55:04;;;;;;;6.53;2.35;;;19.60;99.90;;;;;;6140400;22;89239;-74
2023/09/18 03:57:30;;;;;;;7.20;2.08;;;19.60;99.90;;;;;;6142040;22;86990;-75
2023/09/18 03:59:56;;;;;;;6.32;2.10;;;19.60;99.90;;;;;;6163335;22;89518;-75
2023/09/18 04:02:23;;;;;;;7.22;2.45;;;19.60;99.90;;;;;;6154298;22;89819;-74
2023/09/18 04:04:49;;;;;;;7.30;2.20;;;19.60;99.90;;;;;;6165302;22;91343;-75
2023/09/18 04:07:16;;;;;;;7.53;2.63;;;19.60;99.90;;;;;;6143606;22;88054;-74
2023/09/18 04:09:42;;;;;;;9.02;2.05;;;19.60;99.90;;;;;;6172816;22;87519;-74
2023/09/18 04:12:08;;;;;;;7.65;2.35;;;19.60;99.90;;;;;;6171493;22;88696;-74
2023/09/18 04:14:34;;;;;;;5.85;2.10;;;19.60;99.90;;;;;;6172525;22;88707;-75
2023/09/18 04:17:02;;;;;;;7.15;2.47;;;19.60;99.90;;;;;;6173272;22;87502;-74
2023/09/18 04:19:28;;;;;;;4.72;2.55;;;19.60;99.90;;;;;;6164973;22;87778;-74
2023/09/18 04:21:54;;;;;;;8.07;2.25;;;19.60;99.90;;;;;;6142696;22;87796;-74
2023/09/18 04:24:20;;;;;;;8.15;2.53;;;19.60;99.90;;;;;;6141730;22;87030;-74
2023/09/18 04:26:46;;;;;;;7.93;2.58;;;19.60;99.90;;;;;;6141453;22;87624;-74
2023/09/18 04:29:12;;;;;;;7.38;3.00;;;19.50;99.90;;;;;;6156655;22;88984;-75
2023/09/18 04:31:40;;;;;;;3.60;2.10;;;19.50;99.90;;;;;;6162922;22;89576;-74
2023/09/18 04:34:06;;;;;;;4.55;2.30;;;19.50;99.90;;;;;;6142178;22;87571;-75
2023/09/18 04:36:32;;;;;;;4.82;2.45;;;19.60;99.90;;;;;;6142039;22;87327;-75
2023/09/18 04:38:57;;;;;;;3.47;1.95;;;19.60;99.90;;;;;;6164454;22;87565;-74
2023/09/18 04:41:23;;;;;;;8.88;2.78;;;19.50;99.90;;;;;;6152603;22;89402;-75
2023/09/18 04:43:49;;;;;;;4.70;2.58;;;19.50;99.90;;;;;;6140725;22;91110;-74
2023/09/18 04:46:16;;;;;;;6.60;2.10;;;19.50;99.90;;;;;;6141006;22;86916;-76
2023/09/18 04:48:41;;;;;;;4.07;1.98;;;19.50;99.90;;;;;;6142500;22;88269;-74
2023/09/18 04:51:07;;;;;;;6.68;2.33;;;19.50;99.90;;;;;;6167036;22;90337;-75
2023/09/18 04:53:33;;;;;;;8.02;2.05;;;19.50;99.90;;;;;;6150556;22;92769;-74
2023/09/18 04:56:00;;;;;;;7.70;2.13;;;19.50;99.90;;;;;;6175808;22;87889;-74
2023/09/18 04:58:26;;;;;;;4.25;2.45;;;19.50;99.90;;;;;;6169412;22;88605;-74
2023/09/18 05:00:56;;;;;;;5.50;2.03;;;19.50;99.90;;;;;;6170040;22;91428;-75
2023/09/18 05:03:21;;;;;;;5.30;1.90;;;19.40;99.90;;;;;;6170811;22;87404;-75
2023/09/18 05:05:47;;;;;;;6.35;1.88;;;19.40;99.90;;;;;;6172797;22;87402;-75
2023/09/18 05:08:13;;;;;;;5.53;2.17;;;19.40;99.90;;;;;;6170856;22;87572;-74
2023/09/18 05:10:38;;;;;;;7.82;2.30;;;19.40;99.90;;;;;;6164012;22;88098;-74
2023/09/18 05:13:04;;;;;;;6.82;1.77;;;19.30;99.90;;;;;;6189111;22;87614;-75
2023/09/18 05:15:30;;;;;;;9.85;2.03;;;19.30;99.90;;;;;;6171884;22;87456;-75
2023/09/18 05:17:57;;;;;;;5.95;1.83;;;19.30;99.90;;;;;;6171727;22;88779;-75
2023/09/18 05:20:25;;;;;;;5.78;1.83;;;19.20;99.90;;;;;;6153750;22;91735;-74
2023/09/18 05:22:55;;;;;;;4.47;1.80;;;19.20;99.90;;;;;;6140720;22;88163;-75
2023/09/18 05:25:22;;;;;;;10.00;3.03;;;19.20;99.90;;;;;;6139191;22;87505;-74
2023/09/18 05:27:54;;;;;;;9.18;1.75;;;19.20;99.90;;;;;;6141895;22;89338;-74
2023/09/18 05:30:38;;;;;;;4.00;1.67;;;19.10;99.90;;;;;;6170875;22;87328;-75
2023/09/18 05:33:08;;;;;;;6.03;1.67;;;19.20;99.90;;;;;;6145918;22;90153;-74
2023/09/18 05:35:39;;;;;;;3.50;1.40;;;19.20;99.90;;;;;;6142693;22;87063;-74
2023/09/18 05:38:05;;;;;;;4.53;1.50;;;19.10;99.90;;;;;;6177048;22;88700;-75
2023/09/18 05:40:31;;;;;;;6.75;1.70;;;19.10;99.90;;;;;;6170564;22;88868;-75
2023/09/18 05:42:57;;;;;;;6.70;1.75;;;19.10;99.90;;;;;;6171200;22;88591;-75
2023/09/18 05:45:23;;;;;;;2.40;1.80;;;19.10;99.90;;;;;;6141043;22;87244;-74
2023/09/18 05:47:50;;;;;;;6.88;1.60;;;19.10;99.90;;;;;;6142363;22;88145;-75
2023/09/18 05:50:16;;;;;;;6.57;1.63;;;19.10;99.90;;;;;;6139561;22;91524;-75
2023/09/18 05:52:44;;;;;;;3.83;1.48;;;19.10;99.90;;;;;;6149213;22;88339;-75
2023/09/18 05:55:10;;;;;;;7.30;1.70;;;19.10;99.90;;;;;;6194750;22;87692;-74
2023/09/18 05:57:37;;;;;;;7.32;1.60;;;19.10;99.90;;;;;;6141813;22;87844;-75
2023/09/18 06:00:03;;;;;;;4.90;1.38;;;19.10;99.90;;;;;;6141146;22;90763;-75
2023/09/18 06:02:29;;;;;;;3.45;1.60;;;19.10;99.90;;;;;;6158003;22;89711;-75
2023/09/18 06:05:16;;;;;;;6.03;1.52;;;19.10;99.90;;;;;;6160299;22;87721;-74
2023/09/18 06:07:42;;;;;;;4.40;1.65;;;19.10;99.90;;;;;;6140453;22;88186;-75
2023/09/18 06:10:08;;;;;;;4.60;1.50;;;19.10;99.90;;;;;;6142059;22;87871;-74
2023/09/18 06:12:34;;;;;;;3.20;1.70;;;19.10;99.90;;;;;;6171840;22;88147;-75
2023/09/18 06:15:00;;;;;;;3.20;1.50;;;19.10;99.90;;;;;;6147410;22;87781;-74
2023/09/18 06:17:25;;;;;;;6.63;1.80;;;19.10;99.90;;;;;;6142142;22;87473;-76
2023/09/18 06:19:52;;;;;;;5.65;1.40;;;19.10;99.90;;;;;;6139839;22;90433;-74
2023/09/18 06:22:17;;;;;;;7.80;1.90;;;19.10;99.90;;;;;;6144621;22;88799;-74
2023/09/18 06:24:43;;;;;;;5.72;1.40;;;19.10;99.90;;;;;;6173381;22;87405;-74
2023/09/18 06:27:10;;;;;;;3.58;1.00;;;19.10;99.90;;;;;;6143009;22;90033;-75
2023/09/18 06:29:38;;;;;;;6.55;2.03;;;19.10;99.90;;;;;;6141794;22;88135;-75
2023/09/18 06:32:04;;;;;;;6.90;1.30;;;19.10;99.90;;;;;;6153561;22;89083;-74
2023/09/18 06:34:30;;;;;;;5.90;1.50;;;19.10;99.90;;;;;;6165321;22;88314;-75
2023/09/18 06:36:56;;;;;;;4.57;1.23;;;19.10;99.90;;;;;;6140761;22;88982;-74
2023/09/18 06:39:23;;;;;;;6.82;1.50;;;19.10;99.90;;;;;;6141503;22;87496;-76
2023/09/18 06:41:49;;;;;;;2.85;1.45;;;19.10;99.90;;;;;;6163707;22;87806;-75
2023/09/18 06:44:15;;;;;;;5.43;1.42;;;19.10;99.90;;;;;;6158005;22;87679;-75
2023/09/18 06:46:40;;;;;;;3.15;1.10;;;19.10;99.90;;;;;;6141850;22;87850;-76
2023/09/18 06:49:06;;;;;;;4.15;1.30;;;19.10;99.90;;;;;;6140791;22;89003;-75
2023/09/18 06:51:32;;;;;;;5.72;1.25;;;19.20;99.90;;;;;;6172081;22;87284;-74
2023/09/18 06:53:57;;;;;;;5.97;1.40;;;19.10;99.90;;;;;;6149277;22;87476;-74
2023/09/18 06:56:24;;;;;;;6.38;1.48;;;19.10;99.90;;;;;;6140529;22;89399;-75
2023/09/18 06:58:51;;;;;;;2.63;1.10;;;19.10;99.90;;;;;;6139574;22;91815;-75
2023/09/18 07:01:19;;;;;;;5.45;1.83;;;19.20;99.90;;;;;;6140693;22;88063;-75
2023/09/18 07:03:46;;;;;;;7.75;1.65;;;19.20;99.90;;;;;;6141754;22;87842;-75
2023/09/18 07:06:13;;;;;;;8.65;1.30;;;19.20;99.90;;;;;;6140851;22;87878;-76
2023/09/18 07:08:39;;;;;;;2.95;1.17;;;19.20;99.90;;;;;;6162558;22;90211;-76
2023/09/18 07:11:05;;;;;;;5.28;1.20;;;19.20;99.90;;;;;;6154297;22;90778;-76
2023/09/18 07:13:30;;;;;;;5.38;1.05;;;19.20;99.90;;;;;;6140064;22;87447;-75
2023/09/18 07:15:56;;;;;;;3.50;1.00;;;19.30;99.90;;;;;;6142463;22;88028;-77
2023/09/18 07:18:22;;;;;;;5.57;1.17;;;19.30;99.90;;;;;;6138350;22;90164;-75
2023/09/18 07:20:48;;;;;;;5.10;1.13;;;19.40;99.90;;;;;;6140217;22;88754;-75
2023/09/18 07:23:13;;;;;;;3.83;1.02;;;19.40;99.90;;;;;;6140153;22;87568;-75
2023/09/18 07:25:40;;;;;;;3.35;1.58;;;19.40;99.90;;;;;;6150217;22;87899;-76
2023/09/18 07:28:06;;;;;;;2.63;1.20;;;19.40;99.90;;;;;;6197031;22;90047;-75
2023/09/18 07:30:33;;;;;;;3.55;1.05;;;19.50;99.90;;;;;;6140458;22;91423;-76
2023/09/18 07:33:00;;;;;;;4.28;1.50;;;19.50;99.90;;;;;;6142523;22;93231;-76
2023/09/18 07:35:26;;;;;;;3.20;1.38;;;19.50;99.90;;;;;;6138334;22;90096;-75
2023/09/18 07:37:52;;;;;;;2.70;1.30;;;19.60;99.90;;;;;;6138250;22;87826;-74
2023/09/18 07:40:17;;;;;;;3.30;1.38;;;19.60;99.90;;;;;;6141246;22;87462;-76
2023/09/18 07:42:43;;;;;;;3.00;1.05;;;19.60;99.90;;;;;;6143667;22;87752;-75
2023/09/18 07:45:10;;;;;;;4.03;1.30;;;19.70;99.90;;;;;;6139540;22;90496;-77
2023/09/18 07:47:35;;;;;;;5.68;1.20;;;19.60;99.90;;;;;;6139113;22;89902;-76
2023/09/18 07:50:01;;;;;;;5.18;1.17;;;19.70;99.90;;;;;;6140156;22;87902;-75
2023/09/18 07:52:27;;;;;;;6.18;1.45;;;19.60;99.90;;;;;;6145493;22;87432;-76
2023/09/18 07:54:53;;;;;;;5.82;1.48;;;19.60;99.90;;;;;;6172586;22;87521;-76
2023/09/18 07:57:19;;;;;;;7.55;1.60;;;19.60;99.90;;;;;;6144403;22;89254;-76
2023/09/18 07:59:46;;;;;;;4.72;1.23;;;19.60;99.90;;;;;;6142818;22;87733;-75
2023/09/18 08:02:12;;;;;;;5.20;1.52;;;19.60;99.90;;;;;;6156213;22;87083;-75
2023/09/18 08:04:37;;;;;;;2.00;1.23;;;19.60;99.90;;;;;;6162651;22;88436;-76
2023/09/18 08:07:06;;;;;;;5.95;1.45;;;19.60;99.90;;;;;;6141381;22;87896;-76
2023/09/18 08:09:36;;;;;;;4.30;1.25;;;19.60;99.90;;;;;;6190844;22;94253;-76
2023/09/18 08:12:02;;;;;;;5.28;1.20;;;19.60;99.90;;;;;;6141224;22;87842;-76
2023/09/18 08:14:28;;;;;;;4.53;1.10;;;19.60;99.90;;;;;;6139696;22;88648;-76
2023/09/18 08:16:58;;;;;;;3.17;1.48;;;19.70;99.90;;;;;;6141685;22;88466;-75
2023/09/18 08:19:27;;;;;;;9.20;1.50;;;19.70;99.90;;;;;;6141314;22;88121;-76
2023/09/18 08:21:54;;;;;;;5.40;1.98;;;19.70;99.90;;;;;;6140879;22;87641;-76
2023/09/18 08:24:21;;;;;;;11.52;1.77;;;19.70;99.90;;;;;;6141002;22;90810;-76
2023/09/18 08:26:46;;;;;;;3.03;1.33;;;19.70;99.90;;;;;;6141848;22;88108;-76
2023/09/18 08:29:13;;;;;;;4.53;1.38;;;19.70;99.90;;;;;;6142515;22;87512;-75
2023/09/18 08:31:38;;;;;;;5.22;1.40;;;19.70;99.90;;;;;;6142011;22;88089;-76
2023/09/18 08:34:04;;;;;;;3.63;1.30;;;19.70;99.90;;;;;;6139493;22;88834;-75
2023/09/18 08:36:31;;;;;;;3.70;1.33;;;19.70;99.90;;;;;;6141802;22;92201;-75
2023/09/18 08:38:57;;;;;;;5.65;1.48;;;19.80;99.90;;;;;;6142257;22;88209;-76
2023/09/18 08:41:26;;;;;;;4.40;1.48;;;19.80;99.90;;;;;;6142638;22;87770;-75
2023/09/18 08:44:00;;;;;;;2.50;1.20;;;19.90;99.90;;;;;;6138937;22;89855;-75
2023/09/18 08:46:26;;;;;;;4.25;1.33;;;20.00;99.90;;;;;;6142589;22;87739;-74
2023/09/18 08:48:53;;;;;;;7.32;1.80;;;20.00;99.90;;;;;;6143381;22;88715;-76
2023/09/18 08:51:20;;;;;;;3.95;1.20;;;20.10;99.90;;;;;;6143509;22;87016;-76
2023/09/18 08:53:46;;;;;;;4.10;1.40;;;20.20;99.90;;;;;;6140094;22;88419;-75
2023/09/18 08:56:13;;;;;;;5.70;1.67;;;20.30;99.90;;;;;;6139944;22;89556;-75
2023/09/18 08:58:42;;;;;;;6.00;1.15;;;20.50;99.90;;;;;;6139602;22;91718;-75
2023/09/18 09:01:09;;;;;;;6.30;1.83;;;20.50;99.90;;;;;;6142297;22;87873;-76
2023/09/18 09:03:45;;;;;;;3.60;1.40;;;20.60;99.90;;;;;;6171811;22;90351;-75
2023/09/18 09:06:12;;;;;;;4.43;1.45;;;20.80;99.40;;;;;;6146147;22;87472;-76
2023/09/18 09:08:38;;;;;;;5.03;1.80;;;20.90;99.20;;;;;;6141125;22;91630;-75
2023/09/18 09:11:05;;;;;;;2.83;1.40;;;20.90;99.40;;;;;;6154834;22;87282;-75
2023/09/18 09:13:31;;;;;;;7.03;1.80;;;21.00;98.50;;;;;;6166539;22;87693;-76
2023/09/18 09:15:58;;;;;;;3.90;1.30;;;21.10;98.60;;;;;;6141875;22;90864;-76
2023/09/18 09:18:27;;;;;;;6.10;1.83;;;21.20;98.20;;;;;;6142605;22;87648;-76
2023/09/18 09:21:04;;;;;;;3.40;1.30;;;21.20;97.60;;;;;;6140790;22;88162;-76
2023/09/18 09:23:53;;;;;;;3.92;1.50;;;21.30;98.30;;;;;;6142463;22;88608;-75
2023/09/18 09:26:21;;;;;;;7.32;1.58;;;21.40;97.50;;;;;;6141552;22;88276;-77
2023/09/18 09:28:48;;;;;;;5.30;1.92;;;21.50;97.10;;;;;;6174193;22;89393;-76
2023/09/18 09:31:30;;;;;;;3.75;1.67;;;21.60;98.10;;;;;;6170721;22;88491;-77
2023/09/18 09:33:56;;;;;;;4.47;1.73;;;21.60;97.90;;;;;;6172478;22;88677;-77
2023/09/18 09:36:24;;;;;;;4.63;1.80;;;21.70;97.70;;;;;;6172198;22;88355;-74
2023/09/18 09:38:55;;;;;;;3.40;1.50;;;21.90;96.70;;;;;;6171656;22;88428;-76
2023/09/18 09:41:21;;;;;;;3.83;1.55;;;22.00;96.60;;;;;;6172622;22;87525;-75
2023/09/18 09:43:47;;;;;;;14.63;1.58;;;22.10;96.10;;;;;;6171253;22;87585;-76
2023/09/18 09:46:18;;;;;;;4.63;1.60;;;22.10;95.60;;;;;;6195009;22;89867;-77
2023/09/18 09:49:06;;;;;;;5.15;1.38;;;22.30;96.20;;;;;;6170869;22;88788;-76
2023/09/18 09:51:32;;;;;;;4.50;2.00;;;22.40;94.70;;;;;;6172475;22;88170;-75
2023/09/18 09:54:00;;;;;;;10.07;1.85;;;22.40;95.30;;;;;;6172432;22;87774;-76
2023/09/18 09:56:50;;;;;;;4.05;1.50;;;22.40;94.30;;;;;;6170547;22;87575;-76
2023/09/18 09:59:18;;;;;;;4.05;1.70;;;22.40;94.40;;;;;;6154222;22;88191;-76
2023/09/18 10:01:48;;;;;;;5.22;1.70;;;22.40;94.80;;;;;;6139519;22;87199;-75
2023/09/18 10:04:17;;;;;;;3.03;1.50;;;22.40;95.60;;;;;;6140969;22;87409;-73
2023/09/18 10:06:58;;;;;;;5.47;2.05;;;22.40;94.40;;;;;;6141945;22;90959;-75
2023/09/18 10:09:28;;;;;;;3.50;1.48;;;22.40;94.30;;;;;;6195663;22;89879;-75
2023/09/18 10:11:56;;;;;;;6.78;1.95;;;22.30;94.80;;;;;;6173209;22;88189;-74
2023/09/18 10:14:34;;;;;;;4.35;2.05;;;22.30;94.90;;;;;;6152675;22;89061;-76
2023/09/18 10:17:11;;;;;;;4.68;1.50;;;22.30;94.80;;;;;;6144407;22;88913;-76
2023/09/18 10:19:53;;;;;;;7.07;1.80;;;22.30;95.10;;;;;;6142179;22;89723;-76
2023/09/18 10:22:37;;;;;;;4.30;1.95;;;22.30;95.20;;;;;;6145691;22;87457;-76
2023/09/18 10:25:17;;;;;;;8.10;1.60;;;22.40;95.30;;;;;;6169493;22;90437;-76
2023/09/18 10:27:49;;;;;;;3.85;1.52;;;22.50;94.10;;;;;;6170166;22;91873;-76
2023/09/18 10:30:18;;;;;;;3.78;1.63;;;22.60;94.30;;;;;;6141242;22;91067;-76
2023/09/18 10:32:48;;;;;;;2.95;1.30;;;22.80;95.10;;;;;;6186902;22;94674;-78
2023/09/18 10:35:15;;;;;;;5.72;1.45;;;23.00;93.40;;;;;;6157652;22;87424;-77
2023/09/18 10:37:43;;;;;;;2.17;1.52;;;23.00;93.40;;;;;;6141250;22;87655;-77
2023/09/18 10:40:09;;;;;;;5.72;1.55;;;23.10;92.90;;;;;;6136370;22;91169;-78
2023/09/18 10:42:38;;;;;;;4.35;1.98;;;23.20;93.00;;;;;;6170531;22;87476;-75
2023/09/18 10:45:06;;;;;;;3.50;1.50;;;23.20;93.00;;;;;;6144165;22;92693;-77
2023/09/18 10:47:33;;;;;;;3.60;1.30;;;23.30;92.50;;;;;;6140572;22;90420;-77
2023/09/18 10:50:01;;;;;;;2.83;1.42;;;23.40;92.70;;;;;;6150010;22;90718;-77
2023/09/18 10:52:27;;;;;;;3.95;1.30;;;23.50;92.30;;;;;;6166482;22;87711;-77
2023/09/18 10:54:53;;;;;;;5.20;1.60;;;23.50;92.00;;;;;;6142887;22;87845;-77
2023/09/18 10:57:19;;;;;;;5.10;1.30;;;23.50;91.70;;;;;;6148088;22;87073;-79
2023/09/18 10:59:46;;;;;;;7.00;1.67;;;23.50;91.50;;;;;;6168685;22;87662;-77
2023/09/18 11:02:16;;;;;;;5.80;1.70;;;23.60;91.30;;;;;;6172879;22;86998;-78
2023/09/18 11:04:43;;;;;;;4.65;1.83;;;23.60;90.10;;;;;;6149771;22;88201;-75
2023/09/18 11:07:09;;;;;;;3.35;1.50;;;23.50;88.50;;;;;;6153032;22;88083;-78
2023/09/18 11:09:45;;;;;;;2.90;1.17;;;23.30;87.50;;;;;;6185485;22;87878;-77
2023/09/18 11:12:18;;;;;;;8.85;1.38;;;23.30;90.70;;;;;;6187123;22;87168;-75
2023/09/18 11:14:56;;;;;;;7.93;1.95;;;23.40;90.70;;;;;;6145357;22;87453;-77
2023/09/18 11:17:37;;;;;;;8.88;1.70;;;23.50;90.50;;;;;;6176340;22;91271;-77
2023/09/18 11:23:24;;;;;;;6.97;1.65;;;23.70;90.60;;;;;;6155800;22;87259;-76
2023/09/18 11:25:53;;;;;;;4.28;1.40;;;23.90;90.40;;;;;;6154874;22;87568;-77
2023/09/18 11:28:26;;;;;;;2.80;1.40;;;24.00;90.40;;;;;;6148485;22;88680;-80
2023/09/18 11:30:58;;;;;;;4.00;1.35;;;24.30;90.00;;;;;;6145341;22;90525;-78
2023/09/18 11:33:43;;;;;;;8.30;1.40;;;24.50;89.50;;;;;;6144585;22;87771;-79
2023/09/18 11:36:14;;;;;;;3.70;1.23;;;24.50;87.00;;;;;;6150057;22;87686;-78
2023/09/18 11:38:56;;;;;;;6.07;1.40;;;24.50;86.30;;;;;;6154690;22;87866;-78
2023/09/18 11:41:25;;;;;;;7.53;1.50;;;24.30;86.70;;;;;;6154444;22;90102;-78
2023/09/18 11:43:51;;;;;;;2.35;1.35;;;24.30;86.70;;;;;;6153069;22;87592;-79
2023/09/18 11:46:21;;;;;;;5.13;1.42;;;24.40;86.90;;;;;;6145207;22;90232;-77
2023/09/18 11:48:52;;;;;;;2.97;1.50;;;24.40;86.90;;;;;;6149152;22;91153;-78
2023/09/18 11:51:23;;;;;;;2.75;1.40;;;24.40;87.30;;;;;;6174010;22;88619;-77
2023/09/18 11:53:53;;;;;;;3.72;1.10;;;24.50;89.90;;;;;;6155143;22;87727;-79
2023/09/18 11:56:19;;;;;;;3.33;1.48;;;24.50;87.90;;;;;;6167871;22;91040;-78
2023/09/18 11:58:49;;;;;;;2.45;1.20;;;24.50;85.20;;;;;;6154038;22;88078;-77
2023/09/18 12:01:16;;;;;;;6.25;1.23;;;24.50;85.30;;;;;;6171268;22;90400;-77
2023/09/18 12:03:42;;;;;;;2.50;1.42;;;24.60;84.50;;;;;;6174563;22;87463;-79
2023/09/18 12:06:12;;;;;;;4.57;1.88;;;24.60;84.00;;;;;;6144871;22;89062;-73
2023/09/18 12:08:39;;;;;;;4.60;1.58;;;24.60;86.10;;;;;;6143239;22;88343;-74
2023/09/18 12:11:06;;;;;;;1.70;1.17;;;24.70;86.10;;;;;;6140466;22;91155;-76
2023/09/18 12:13:33;;;;;;;3.80;1.67;;;24.90;83.90;;;;;;6143925;22;86739;-79
2023/09/18 12:16:06;;;;;;;5.78;1.30;;;25.00;84.20;;;;;;6146725;22;87513;-75
2023/09/18 12:18:34;;;;;;;;;;;25.10;83.10;;;;;;6143718;22;95694;-75
2023/09/18 12:21:04;;;;;;;6.97;1.20;;;25.20;82.40;;;;;;6148345;22;90556;-80
2023/09/18 12:23:37;;;;;;;3.95;1.38;;;25.40;83.00;;;;;;6163721;22;87541;-76
2023/09/18 12:26:04;;;;;;;6.47;1.40;;;25.50;82.80;;;;;;6159501;22;87527;-78
2023/09/18 12:28:31;;;;;;;6.13;1.20;;;25.60;83.50;;;;;;6145493;22;87699;-78
2023/09/18 12:30:58;;;;;;;3.70;1.15;;;25.70;82.50;;;;;;6143425;22;89560;-76
2023/09/18 12:33:24;;;;;;;2.15;1.40;;;25.80;81.90;;;;;;6173111;22;87405;-81
2023/09/18 12:35:51;;;;;;;3.53;1.20;;;25.90;82.90;;;;;;6151744;22;87748;-76
2023/09/18 12:38:24;;;;;;;4.70;1.20;;;26.00;80.40;;;;;;6141220;22;90876;-77
2023/09/18 12:40:50;;;;;;;;;;;26.00;77.50;;;;;;6175186;22;90537;-75
2023/09/18 12:43:16;;;;;;;3.78;1.30;;;26.00;79.10;;;;;;6198878;22;87460;-76
2023/09/18 12:45:44;;;;;;;2.63;1.20;;;25.70;76.50;;;;;;6173820;22;89002;-78
2023/09/18 12:48:10;;;;;;;2.28;1.10;;;25.50;78.50;;;;;;6173223;22;88134;-79
2023/09/18 12:50:36;;;;;;;2.50;1.35;;;25.50;80.20;;;;;;6172970;22;87534;-79
2023/09/18 12:53:12;;;;;;;2.97;0.70;;;25.60;79.90;;;;;;6167904;22;88051;-81